Terminal Aerodrome Forecast
Issued by NWS Sioux Falls, SD

Home | Current Version | Previous Version | Text Only | Print | Product List | Glossary On
Versions: 1 2 3 4 5 6 7 8 9 10 11 12 13 14 15 16 17 18 19
000
FTUS43 KFSD 251057 AAA
TAFFSD
TAF AMD
KFSD 251057Z 2511/2606 16006KT P6SM SCT080 BKN140
     FM251700 05008KT P6SM SCT070 BKN120
     FM252200 03010KT P6SM OVC015=

USA.gov is the U.S. government's official web portal to all federal, state and local government web resources and services.